createdAt,value
2022-12-12T00:01:02.927Z,18.83
2022-12-12T00:06:26.484Z,22.33
2022-12-12T00:11:49.799Z,21.40
2022-12-12T00:17:11.457Z,20.00
2022-12-12T00:22:33.765Z,21.63
2022-12-12T00:27:57.185Z,20.37
2022-12-12T00:33:19.598Z,19.80
2022-12-12T00:38:42.274Z,19.57
2022-12-12T00:44:05.390Z,20.80
2022-12-12T00:49:27.240Z,20.17
2022-12-12T00:54:49.033Z,21.80
2022-12-12T01:00:16.578Z,21.30
2022-12-12T01:05:38.190Z,20.57
2022-12-12T01:11:00.187Z,19.90
2022-12-12T01:16:25.049Z,19.60
2022-12-12T01:21:46.653Z,20.03
2022-12-12T01:27:08.668Z,20.83
2022-12-12T01:32:32.109Z,20.73
2022-12-12T01:37:54.450Z,19.70
2022-12-12T01:43:18.838Z,21.87
2022-12-12T01:48:47.072Z,18.03
2022-12-12T01:54:11.579Z,21.40
2022-12-12T01:59:36.103Z,19.63
2022-12-12T02:05:02.949Z,22.10
2022-12-12T02:10:25.213Z,19.53
2022-12-12T02:15:59.341Z,19.67
2022-12-12T02:21:27.437Z,21.17
2022-12-12T02:27:18.307Z,19.87
2022-12-12T02:32:53.215Z,19.83
2022-12-12T02:38:27.114Z,18.17
2022-12-12T02:44:00.981Z,18.33
2022-12-12T02:49:30.957Z,19.50
2022-12-12T02:54:52.499Z,21.60
2022-12-12T03:00:17.956Z,19.33
2022-12-12T03:06:05.573Z,19.80
2022-12-12T03:11:41.698Z,21.00
2022-12-12T03:17:11.566Z,19.80
2022-12-12T03:22:44.912Z,19.50
2022-12-12T03:28:11.562Z,21.73
2022-12-12T03:33:37.268Z,24.27
2022-12-12T03:39:06.256Z,20.47
2022-12-12T03:44:38.171Z,19.60
2022-12-12T03:50:07.597Z,18.90
2022-12-12T03:55:38.621Z,20.57
2022-12-12T04:01:04.578Z,20.70
2022-12-12T04:06:35.139Z,20.20
2022-12-12T04:12:23.314Z,20.13
2022-12-12T04:17:50.863Z,19.87
2022-12-12T04:23:26.144Z,19.10
2022-12-12T04:28:55.664Z,23.87
2022-12-12T04:34:25.295Z,18.10
2022-12-12T04:39:50.941Z,20.03
2022-12-12T04:45:17.669Z,19.70
2022-12-12T04:50:40.560Z,18.50
2022-12-12T04:56:08.652Z,17.37
2022-12-12T05:01:39.162Z,20.77
2022-12-12T05:07:06.365Z,20.37
2022-12-12T05:12:28.618Z,20.10
2022-12-12T05:17:57.840Z,18.03
2022-12-12T05:23:19.793Z,17.97
2022-12-12T05:28:41.785Z,15.63
2022-12-12T05:34:05.053Z,17.40
2022-12-12T05:39:26.765Z,18.57
2022-12-12T05:44:48.404Z,15.50
2022-12-12T05:50:12.038Z,16.77
2022-12-12T05:55:33.935Z,18.10
2022-12-12T06:01:01.630Z,17.87
2022-12-12T06:06:26.790Z,14.73
2022-12-12T06:11:48.648Z,15.67
2022-12-12T06:17:10.330Z,17.90
2022-12-12T06:22:33.453Z,16.33
2022-12-12T06:27:55.350Z,16.00
2022-12-12T06:33:17.196Z,15.93
2022-12-12T06:38:41.117Z,15.00
2022-12-12T06:44:03.042Z,17.03
2022-12-12T06:49:25.019Z,16.43
2022-12-12T06:54:48.884Z,16.50
2022-12-12T07:00:11.855Z,16.83
2022-12-12T07:05:33.744Z,16.43
2022-12-12T07:10:58.528Z,16.53
2022-12-12T07:16:21.056Z,16.70
2022-12-12T07:21:42.669Z,20.33
2022-12-12T07:27:06.620Z,20.10
2022-12-12T07:32:28.985Z,22.03
2022-12-12T07:37:50.978Z,25.93
2022-12-12T07:43:14.192Z,21.57
2022-12-12T07:48:36.472Z,22.33
2022-12-12T07:53:58.143Z,23.83
2022-12-12T07:59:21.788Z,23.00
2022-12-12T08:04:43.961Z,25.83
2022-12-12T08:10:07.052Z,26.37
2022-12-12T08:15:30.505Z,27.83
2022-12-12T08:20:52.331Z,25.40
2022-12-12T08:26:18.297Z,30.93
2022-12-12T08:31:41.994Z,27.33
2022-12-12T08:37:03.953Z,24.17
2022-12-12T08:42:25.791Z,28.03
2022-12-12T08:47:49.087Z,22.23
2022-12-12T08:53:11.056Z,19.50
2022-12-12T08:58:33.067Z,22.70
2022-12-12T09:03:58.103Z,21.97
2022-12-12T09:09:20.042Z,23.17
2022-12-12T09:14:41.972Z,25.70
2022-12-12T09:20:05.860Z,26.30
2022-12-12T09:25:28.314Z,24.07
2022-12-12T09:30:50.525Z,19.97
2022-12-12T09:36:15.167Z,23.17
2022-12-12T09:41:37.187Z,18.53
2022-12-12T09:47:03.796Z,19.70
2022-12-12T09:52:32.341Z,20.33
2022-12-12T09:58:00.339Z,17.87
2022-12-12T10:03:15.272Z,18.30
2022-12-12T10:08:29.947Z,20.30
2022-12-12T10:13:35.242Z,16.77
2022-12-12T10:18:43.389Z,23.03
2022-12-12T10:23:53.669Z,17.57
2022-12-12T10:29:11.217Z,18.37
2022-12-12T10:34:27.964Z,15.80
2022-12-12T10:39:42.305Z,14.00
2022-12-12T10:45:16.521Z,13.50
2022-12-12T10:50:27.509Z,15.50
2022-12-12T10:55:40.313Z,16.13
2022-12-12T11:00:45.808Z,15.57
2022-12-12T11:05:49.849Z,15.47
2022-12-12T11:11:08.296Z,17.57
2022-12-12T11:16:17.601Z,15.00
2022-12-12T11:21:22.060Z,13.97
2022-12-12T11:26:29.805Z,16.13
2022-12-12T11:31:36.879Z,17.10
2022-12-12T11:36:42.772Z,17.10
2022-12-12T11:42:02.012Z,16.13
2022-12-12T11:47:25.730Z,15.53
2022-12-12T11:52:31.502Z,14.50
2022-12-12T11:58:03.285Z,21.43
2022-12-12T12:03:24.044Z,17.67
2022-12-12T12:08:40.879Z,17.97
2022-12-12T12:14:05.055Z,17.83
2022-12-12T12:19:15.528Z,15.37
2022-12-12T12:24:49.867Z,17.47
2022-12-12T12:30:13.472Z,20.53
2022-12-12T12:35:29.784Z,16.73
2022-12-12T12:40:51.426Z,16.83
2022-12-12T12:46:02.834Z,18.63
2022-12-12T12:51:13.070Z,19.30
2022-12-12T12:56:26.464Z,20.33
2022-12-12T13:01:35.834Z,19.07
2022-12-12T13:06:45.514Z,17.03
2022-12-12T13:11:52.460Z,16.73
2022-12-12T13:17:00.543Z,15.17
2022-12-12T13:22:09.210Z,16.43
2022-12-12T13:27:20.785Z,16.87
2022-12-12T13:32:49.941Z,17.73
2022-12-12T13:37:55.363Z,20.67
2022-12-12T13:43:08.722Z,19.00
2022-12-12T13:48:48.305Z,18.37
2022-12-12T13:54:30.407Z,21.03
2022-12-12T13:59:33.854Z,17.90
2022-12-12T14:04:39.657Z,21.90
2022-12-12T14:09:49.364Z,20.97
2022-12-12T14:14:57.243Z,19.73
2022-12-12T14:20:01.390Z,19.00
2022-12-12T14:25:09.664Z,17.73
2022-12-12T14:30:18.933Z,19.73
2022-12-12T14:35:33.378Z,19.30
2022-12-12T14:40:41.609Z,20.93
2022-12-12T14:45:55.968Z,21.83
2022-12-12T14:51:04.572Z,20.57
2022-12-12T14:56:13.364Z,20.57
2022-12-12T15:01:27.838Z,22.80
2022-12-12T15:06:34.549Z,20.60
2022-12-12T15:11:39.784Z,22.27
2022-12-12T15:16:48.631Z,21.63
2022-12-12T15:21:52.810Z,23.23
2022-12-12T15:26:59.716Z,22.03
2022-12-12T15:32:05.327Z,20.80
2022-12-12T15:37:28.241Z,21.43
2022-12-12T15:42:33.320Z,20.03
2022-12-12T15:47:36.975Z,18.77
2022-12-12T15:52:40.331Z,21.53
2022-12-12T15:57:49.848Z,19.23
2022-12-12T16:03:03.288Z,19.83
2022-12-12T16:08:38.878Z,18.23
2022-12-12T16:13:45.186Z,17.13
2022-12-12T16:18:48.503Z,16.47
2022-12-12T16:23:51.752Z,18.30
2022-12-12T16:28:56.260Z,19.70
2022-12-12T16:34:03.630Z,19.13
2022-12-12T16:39:08.501Z,19.90
2022-12-12T16:44:13.275Z,19.00
2022-12-12T16:49:16.663Z,20.77
2022-12-12T16:54:20.279Z,18.00
2022-12-12T16:59:25.182Z,17.77
2022-12-12T17:04:29.118Z,18.23
2022-12-12T17:09:32.527Z,17.77
2022-12-12T17:14:37.620Z,20.37
2022-12-12T17:19:40.961Z,17.97
2022-12-12T17:24:44.419Z,15.67
2022-12-12T17:29:49.300Z,15.20
2022-12-12T17:34:52.811Z,15.87
2022-12-12T17:39:56.159Z,17.43
2022-12-12T17:45:01.700Z,17.13
2022-12-12T17:50:08.095Z,14.90
2022-12-12T17:55:53.711Z,16.60
2022-12-12T18:01:01.224Z,18.13
2022-12-12T18:06:09.749Z,17.80
2022-12-12T18:11:22.044Z,15.57
2022-12-12T18:16:39.832Z,15.20
2022-12-12T18:22:01.185Z,15.20
2022-12-12T18:27:09.156Z,16.90
2022-12-12T18:32:27.623Z,15.30
2022-12-12T18:43:21.716Z,17.83
2022-12-12T18:48:36.026Z,16.50
2022-12-12T18:53:46.321Z,19.33
2022-12-12T18:58:59.134Z,17.93
2022-12-12T19:04:23.952Z,18.77
2022-12-12T19:09:35.518Z,17.63
2022-12-12T19:20:24.573Z,16.97
2022-12-12T19:25:37.600Z,17.60
2022-12-12T19:30:46.493Z,18.23
2022-12-12T19:35:55.311Z,18.20
2022-12-12T19:41:10.896Z,16.97
2022-12-12T19:46:22.621Z,18.27
2022-12-12T19:51:38.264Z,17.47
2022-12-12T19:56:50.137Z,16.73
2022-12-12T20:01:58.682Z,18.10
2022-12-12T20:07:13.684Z,16.93
2022-12-12T20:12:23.879Z,17.77
2022-12-12T20:17:31.318Z,16.37
2022-12-12T20:22:39.278Z,18.27
2022-12-12T20:28:03.709Z,15.13
2022-12-12T20:33:14.309Z,15.93
2022-12-12T20:38:28.182Z,16.40
2022-12-12T20:43:37.715Z,16.90
2022-12-12T20:49:09.632Z,16.63
2022-12-12T20:54:34.450Z,15.93
2022-12-12T20:59:41.011Z,15.50
2022-12-12T21:04:50.767Z,15.90
2022-12-12T21:10:07.775Z,16.03
2022-12-12T21:15:18.077Z,15.80
2022-12-12T21:20:23.485Z,12.50
2022-12-12T21:25:58.080Z,10.93
2022-12-12T21:36:35.511Z,10.70
2022-12-12T21:41:57.323Z,10.43
2022-12-12T21:47:03.411Z,13.97
2022-12-12T21:52:15.382Z,14.33
2022-12-12T21:57:32.221Z,13.13
2022-12-12T22:02:39.020Z,15.20
2022-12-12T22:07:49.133Z,18.40
2022-12-12T22:13:13.667Z,17.73
2022-12-12T22:18:30.033Z,18.27
2022-12-12T22:23:44.065Z,16.80
2022-12-12T22:29:01.561Z,15.67
2022-12-12T22:34:09.591Z,16.47
2022-12-12T22:39:18.275Z,16.00
2022-12-12T22:44:27.535Z,20.93
2022-12-12T22:49:42.828Z,18.97
2022-12-12T22:54:48.035Z,20.80
2022-12-12T23:00:01.237Z,20.03
2022-12-12T23:05:19.936Z,20.23
2022-12-12T23:10:36.221Z,22.67
2022-12-12T23:16:03.185Z,22.83
2022-12-12T23:21:17.224Z,23.63
2022-12-12T23:26:47.482Z,22.83
2022-12-12T23:32:00.202Z,23.60
2022-12-12T23:37:17.989Z,22.67
2022-12-12T23:42:24.577Z,24.33
2022-12-12T23:47:53.660Z,24.83
2022-12-12T23:53:07.573Z,22.10
2022-12-12T23:58:23.550Z,20.60
